sensor_id;sensor_type;location;lat;lon;timestamp;pressure;altitude;pressure_sealevel;temperature;humidity
61961;BME280;47923;42.506;24.192;2023-04-09T00:01:09;95551.16;;;4.33;94.16
61961;BME280;47923;42.506;24.192;2023-04-09T00:03:36;95792.13;;;5.93;94.70
61961;BME280;47923;42.506;24.192;2023-04-09T00:06:03;95781.09;;;5.77;94.90
61961;BME280;47923;42.506;24.192;2023-04-09T00:08:29;95651.06;;;4.98;94.70
61961;BME280;47923;42.506;24.192;2023-04-09T00:10:56;95796.38;;;5.94;94.67
61961;BME280;47923;42.506;24.192;2023-04-09T00:13:22;95758.25;;;5.62;94.59
61961;BME280;47923;42.506;24.192;2023-04-09T00:15:47;95470.63;;;3.74;94.36
61961;BME280;47923;42.506;24.192;2023-04-09T00:18:13;95797.50;;;5.93;95.14
61961;BME280;47923;42.506;24.192;2023-04-09T00:20:39;95741.09;;;5.54;94.56
61961;BME280;47923;42.506;24.192;2023-04-09T00:23:05;95371.44;;;3.07;94.61
61961;BME280;47923;42.506;24.192;2023-04-09T00:25:31;95700.34;;;5.23;95.62
61961;BME280;47923;42.506;24.192;2023-04-09T00:27:56;95753.06;;;5.66;95.28
61961;BME280;47923;42.506;24.192;2023-04-09T00:30:22;95798.44;;;5.97;94.47
61961;BME280;47923;42.506;24.192;2023-04-09T00:32:48;95747.91;;;5.52;94.53
61961;BME280;47923;42.506;24.192;2023-04-09T00:35:14;95807.56;;;6.04;94.13
61961;BME280;47923;42.506;24.192;2023-04-09T00:37:41;95809.94;;;6.06;94.23
61961;BME280;47923;42.506;24.192;2023-04-09T00:40:07;95817.03;;;6.02;94.56
61961;BME280;47923;42.506;24.192;2023-04-09T00:42:34;95802.22;;;5.96;95.31
61961;BME280;47923;42.506;24.192;2023-04-09T00:45:00;95797.50;;;5.93;95.22
61961;BME280;47923;42.506;24.192;2023-04-09T00:47:26;95621.47;;;4.68;94.84
61961;BME280;47923;42.506;24.192;2023-04-09T00:49:53;95803.47;;;5.98;95.45
61961;BME280;47923;42.506;24.192;2023-04-09T00:52:19;95604.97;;;4.58;95.04
61961;BME280;47923;42.506;24.192;2023-04-09T00:54:49;95797.31;;;5.89;95.42
61961;BME280;47923;42.506;24.192;2023-04-09T00:57:18;95764.25;;;5.68;95.39
61961;BME280;47923;42.506;24.192;2023-04-09T00:59:44;95763.47;;;5.67;95.51
61961;BME280;47923;42.506;24.192;2023-04-09T01:02:10;95804.25;;;5.90;95.30
61961;BME280;47923;42.506;24.192;2023-04-09T01:04:37;95677.66;;;5.12;95.56
61961;BME280;47923;42.506;24.192;2023-04-09T01:13:06;95798.91;;;5.81;95.28
61961;BME280;47923;42.506;24.192;2023-04-09T01:15:35;95799.53;;;5.78;95.58
61961;BME280;47923;42.506;24.192;2023-04-09T01:18:10;95543.78;;;4.13;95.16
61961;BME280;47923;42.506;24.192;2023-04-09T01:20:39;95788.72;;;5.66;96.03
61961;BME280;47923;42.506;24.192;2023-04-09T01:26:09;95598.19;;;4.26;96.83
61961;BME280;47923;42.506;24.192;2023-04-09T01:28:45;95792.19;;;5.41;97.16
61961;BME280;47923;42.506;24.192;2023-04-09T01:31:15;95800.22;;;5.32;96.75
61961;BME280;47923;42.506;24.192;2023-04-09T01:33:42;95172.66;;;1.21;96.84
61961;BME280;47923;42.506;24.192;2023-04-09T01:36:08;95807.34;;;5.37;98.26
61961;BME280;47923;42.506;24.192;2023-04-09T01:38:35;95810.31;;;5.44;97.91
61961;BME280;47923;42.506;24.192;2023-04-09T01:41:02;95752.97;;;5.10;97.33
61961;BME280;47923;42.506;24.192;2023-04-09T01:43:29;95808.91;;;5.46;97.68
61961;BME280;47923;42.506;24.192;2023-04-09T01:45:57;95812.50;;;5.50;98.90
61961;BME280;47923;42.506;24.192;2023-04-09T01:48:24;95814.88;;;5.52;99.17
61961;BME280;47923;42.506;24.192;2023-04-09T01:50:50;95801.63;;;5.55;99.26
61961;BME280;47923;42.506;24.192;2023-04-09T01:53:16;95798.50;;;5.53;99.18
61961;BME280;47923;42.506;24.192;2023-04-09T01:55:42;95681.47;;;4.76;98.69
61961;BME280;47923;42.506;24.192;2023-04-09T01:58:07;95676.44;;;4.75;99.20
61961;BME280;47923;42.506;24.192;2023-04-09T02:00:44;95649.19;;;4.55;99.07
61961;BME280;47923;42.506;24.192;2023-04-09T02:03:26;95777.22;;;5.40;98.55
61961;BME280;47923;42.506;24.192;2023-04-09T02:06:00;95732.31;;;5.11;98.24
61961;BME280;47923;42.506;24.192;2023-04-09T02:08:33;95687.44;;;4.73;98.51
61961;BME280;47923;42.506;24.192;2023-04-09T02:11:03;95813.78;;;5.53;98.30
61961;BME280;47923;42.506;24.192;2023-04-09T02:13:31;95589.84;;;4.10;98.34
61961;BME280;47923;42.506;24.192;2023-04-09T02:16:00;95793.94;;;5.37;98.59
61961;BME280;47923;42.506;24.192;2023-04-09T02:18:27;95814.88;;;5.52;98.38
61961;BME280;47923;42.506;24.192;2023-04-09T02:20:54;95792.03;;;5.37;98.13
61961;BME280;47923;42.506;24.192;2023-04-09T02:23:20;95822.28;;;5.55;98.12
61961;BME280;47923;42.506;24.192;2023-04-09T02:25:46;95738.31;;;4.99;97.97
61961;BME280;47923;42.506;24.192;2023-04-09T02:28:12;95725.72;;;4.91;97.65
61961;BME280;47923;42.506;24.192;2023-04-09T02:30:38;95831.91;;;5.56;97.26
61961;BME280;47923;42.506;24.192;2023-04-09T02:33:03;95830.66;;;5.53;97.09
61961;BME280;47923;42.506;24.192;2023-04-09T02:35:29;95711.22;;;4.75;95.99
61961;BME280;47923;42.506;24.192;2023-04-09T02:37:55;95821.97;;;5.48;95.07
61961;BME280;47923;42.506;24.192;2023-04-09T02:40:20;95779.75;;;5.02;95.02
61961;BME280;47923;42.506;24.192;2023-04-09T02:42:46;95694.97;;;4.54;94.48
61961;BME280;47923;42.506;24.192;2023-04-09T02:45:11;95770.94;;;4.92;93.93
61961;BME280;47923;42.506;24.192;2023-04-09T02:47:36;95847.81;;;5.35;92.50
61961;BME280;47923;42.506;24.192;2023-04-09T02:50:03;95861.69;;;5.20;91.99
61961;BME280;47923;42.506;24.192;2023-04-09T02:52:28;95836.63;;;5.24;91.75
61961;BME280;47923;42.506;24.192;2023-04-09T02:54:54;95824.66;;;5.22;91.24
61961;BME280;47923;42.506;24.192;2023-04-09T02:57:19;95832.69;;;5.22;91.92
61961;BME280;47923;42.506;24.192;2023-04-09T02:59:45;95751.19;;;4.62;91.34
61961;BME280;47923;42.506;24.192;2023-04-09T03:02:11;95831.59;;;5.14;91.47
61961;BME280;47923;42.506;24.192;2023-04-09T03:04:37;95774.03;;;4.77;91.52
61961;BME280;47923;42.506;24.192;2023-04-09T03:07:03;95633.78;;;3.69;91.82
61961;BME280;47923;42.506;24.192;2023-04-09T03:09:28;95806.78;;;4.74;92.99
61961;BME280;47923;42.506;24.192;2023-04-09T03:11:55;95828.72;;;4.85;93.11
61961;BME280;47923;42.506;24.192;2023-04-09T03:14:22;95822.53;;;4.84;93.46
61961;BME280;47923;42.506;24.192;2023-04-09T03:16:47;95826.97;;;4.80;93.29
61961;BME280;47923;42.506;24.192;2023-04-09T03:19:13;95585.00;;;3.15;93.79
61961;BME280;47923;42.506;24.192;2023-04-09T03:21:38;95704.53;;;3.80;93.77
61961;BME280;47923;42.506;24.192;2023-04-09T03:24:05;95635.69;;;3.38;93.90
61961;BME280;47923;42.506;24.192;2023-04-09T03:26:31;95832.09;;;4.59;94.62
61961;BME280;47923;42.506;24.192;2023-04-09T03:29:01;95835.53;;;4.51;94.81
61961;BME280;47923;42.506;24.192;2023-04-09T03:31:26;95831.72;;;4.43;94.77
61961;BME280;47923;42.506;24.192;2023-04-09T03:33:52;95844.94;;;4.40;95.03
61961;BME280;47923;42.506;24.192;2023-04-09T03:36:17;95839.41;;;4.36;95.70
61961;BME280;47923;42.506;24.192;2023-04-09T03:38:43;95694.00;;;3.44;96.51
61961;BME280;47923;42.506;24.192;2023-04-09T03:41:08;95701.97;;;3.36;96.97
61961;BME280;47923;42.506;24.192;2023-04-09T03:43:33;95683.00;;;3.15;97.21
61961;BME280;47923;42.506;24.192;2023-04-09T03:45:59;95496.13;;;1.77;97.02
61961;BME280;47923;42.506;24.192;2023-04-09T03:48:25;95818.38;;;3.81;97.85
61961;BME280;47923;42.506;24.192;2023-04-09T03:50:50;95474.50;;;1.42;97.30
61961;BME280;47923;42.506;24.192;2023-04-09T03:53:15;95627.44;;;2.49;97.85
61961;BME280;47923;42.506;24.192;2023-04-09T03:55:41;95682.41;;;2.95;97.97
61961;BME280;47923;42.506;24.192;2023-04-09T03:58:06;95837.78;;;3.96;97.52
61961;BME280;47923;42.506;24.192;2023-04-09T04:00:32;95858.66;;;4.16;97.86
61961;BME280;47923;42.506;24.192;2023-04-09T04:02:57;95862.59;;;4.19;98.52
61961;BME280;47923;42.506;24.192;2023-04-09T04:05:23;95766.41;;;3.65;97.74
61961;BME280;47923;42.506;24.192;2023-04-09T04:07:51;95855.44;;;4.28;98.72
61961;BME280;47923;42.506;24.192;2023-04-09T04:10:17;95684.34;;;3.03;98.01
61961;BME280;47923;42.506;24.192;2023-04-09T04:12:42;95832.06;;;4.11;97.98
61961;BME280;47923;42.506;24.192;2023-04-09T04:15:08;95758.16;;;3.75;98.42
61961;BME280;47923;42.506;24.192;2023-04-09T04:17:34;95657.03;;;3.07;98.37
61961;BME280;47923;42.506;24.192;2023-04-09T04:19:59;95856.25;;;4.37;97.93
61961;BME280;47923;42.506;24.192;2023-04-09T04:22:25;95857.00;;;4.29;98.33
61961;BME280;47923;42.506;24.192;2023-04-09T04:24:50;95866.59;;;4.30;99.00
61961;BME280;47923;42.506;24.192;2023-04-09T04:27:16;95845.97;;;4.22;98.38
61961;BME280;47923;42.506;24.192;2023-04-09T04:29:41;95223.84;;;0.23;98.01
61961;BME280;47923;42.506;24.192;2023-04-09T04:32:07;95757.91;;;3.63;98.45
61961;BME280;47923;42.506;24.192;2023-04-09T04:34:32;95746.59;;;3.66;98.48
61961;BME280;47923;42.506;24.192;2023-04-09T04:36:58;95708.28;;;3.40;98.46
61961;BME280;47923;42.506;24.192;2023-04-09T04:39:23;95827.41;;;4.25;97.36
61961;BME280;47923;42.506;24.192;2023-04-09T04:41:49;95877.94;;;4.66;97.09
61961;BME280;47923;42.506;24.192;2023-04-09T04:44:14;95733.78;;;3.77;96.76
61961;BME280;47923;42.506;24.192;2023-04-09T04:46:40;95876.56;;;4.78;97.31
61961;BME280;47923;42.506;24.192;2023-04-09T04:49:05;95859.53;;;4.65;96.15
61961;BME280;47923;42.506;24.192;2023-04-09T04:51:31;95471.28;;;2.35;95.84
61961;BME280;47923;42.506;24.192;2023-04-09T04:53:56;95718.81;;;4.07;95.44
61961;BME280;47923;42.506;24.192;2023-04-09T04:56:21;95876.16;;;5.19;94.76
61961;BME280;47923;42.506;24.192;2023-04-09T04:58:47;95849.84;;;5.04;93.94
61961;BME280;47923;42.506;24.192;2023-04-09T05:01:12;95815.03;;;4.95;92.80
61961;BME280;47923;42.506;24.192;2023-04-09T05:03:38;95863.91;;;5.35;91.26
61961;BME280;47923;42.506;24.192;2023-04-09T05:06:03;95784.59;;;4.74;90.74
61961;BME280;47923;42.506;24.192;2023-04-09T05:08:29;95854.75;;;5.19;89.67
61961;BME280;47923;42.506;24.192;2023-04-09T05:10:54;95869.75;;;5.46;89.68
61961;BME280;47923;42.506;24.192;2023-04-09T05:13:20;95872.28;;;5.60;89.48
61961;BME280;47923;42.506;24.192;2023-04-09T05:15:46;95814.88;;;5.17;87.68
61961;BME280;47923;42.506;24.192;2023-04-09T05:18:11;95860.91;;;5.45;86.42
61961;BME280;47923;42.506;24.192;2023-04-09T05:20:37;95631.81;;;4.01;86.29
61961;BME280;47923;42.506;24.192;2023-04-09T05:23:02;95863.59;;;5.37;86.52
61961;BME280;47923;42.506;24.192;2023-04-09T05:25:28;95878.88;;;5.62;86.24
61961;BME280;47923;42.506;24.192;2023-04-09T05:27:53;95711.22;;;4.57;85.38
61961;BME280;47923;42.506;24.192;2023-04-09T05:30:20;95711.38;;;4.61;85.07
61961;BME280;47923;42.506;24.192;2023-04-09T05:32:45;95821.66;;;5.23;85.50
61961;BME280;47923;42.506;24.192;2023-04-09T05:35:11;95887.56;;;5.59;85.50
61961;BME280;47923;42.506;24.192;2023-04-09T05:37:36;95867.34;;;5.36;85.11
61961;BME280;47923;42.506;24.192;2023-04-09T05:40:02;95881.25;;;5.55;84.70
61961;BME280;47923;42.506;24.192;2023-04-09T05:42:27;95747.91;;;4.74;84.23
61961;BME280;47923;42.506;24.192;2023-04-09T05:44:53;95865.31;;;5.41;84.23
61961;BME280;47923;42.506;24.192;2023-04-09T05:47:18;95814.25;;;5.03;83.81
61961;BME280;47923;42.506;24.192;2023-04-09T05:49:44;95396.84;;;2.47;84.40
61961;BME280;47923;42.506;24.192;2023-04-09T05:52:10;95731.53;;;4.67;85.05
61961;BME280;47923;42.506;24.192;2023-04-09T05:54:35;95843.41;;;5.48;84.77
61961;BME280;47923;42.506;24.192;2023-04-09T05:57:01;95739.25;;;5.03;83.89
61961;BME280;47923;42.506;24.192;2023-04-09T05:59:27;95779.91;;;5.31;83.46
61961;BME280;47923;42.506;24.192;2023-04-09T06:01:52;95841.03;;;5.72;82.78
61961;BME280;47923;42.506;24.192;2023-04-09T06:04:17;95838.66;;;5.79;83.22
61961;BME280;47923;42.506;24.192;2023-04-09T06:06:43;95857.75;;;5.95;83.10
61961;BME280;47923;42.506;24.192;2023-04-09T06:09:08;95669.97;;;4.93;82.46
61961;BME280;47923;42.506;24.192;2023-04-09T06:11:34;95867.94;;;6.28;81.46
61961;BME280;47923;42.506;24.192;2023-04-09T06:13:59;95874.66;;;6.51;81.44
61961;BME280;47923;42.506;24.192;2023-04-09T06:16:24;95857.78;;;6.42;80.62
61961;BME280;47923;42.506;24.192;2023-04-09T06:18:50;95823.16;;;6.11;79.21
61961;BME280;47923;42.506;24.192;2023-04-09T06:21:18;95897.53;;;6.57;79.27
61961;BME280;47923;42.506;24.192;2023-04-09T06:23:44;95442.97;;;3.53;78.40
61961;BME280;47923;42.506;24.192;2023-04-09T06:26:10;95877.19;;;6.48;78.92
61961;BME280;47923;42.506;24.192;2023-04-09T06:28:35;95889.78;;;6.56;78.15
61961;BME280;47923;42.506;24.192;2023-04-09T06:31:00;95773.34;;;5.93;77.00
61961;BME280;47923;42.506;24.192;2023-04-09T06:33:26;95879.56;;;6.49;77.51
61961;BME280;47923;42.506;24.192;2023-04-09T06:35:51;95895.38;;;7.10;78.73
61961;BME280;47923;42.506;24.192;2023-04-09T06:38:17;95837.41;;;6.79;79.23
61961;BME280;47923;42.506;24.192;2023-04-09T06:40:43;95892.13;;;7.25;79.02
61961;BME280;47923;42.506;24.192;2023-04-09T06:43:09;95917.50;;;7.15;79.15
61961;BME280;47923;42.506;24.192;2023-04-09T06:45:35;95902.56;;;7.27;79.10
61961;BME280;47923;42.506;24.192;2023-04-09T06:48:02;95714.47;;;6.05;78.93
61961;BME280;47923;42.506;24.192;2023-04-09T06:50:27;95899.41;;;7.25;78.91
61961;BME280;47923;42.506;24.192;2023-04-09T06:52:53;95899.03;;;7.97;77.93
61961;BME280;47923;42.506;24.192;2023-04-09T06:55:19;95898.06;;;8.02;75.32
61961;BME280;47923;42.506;24.192;2023-04-09T06:57:44;95906.66;;;8.62;74.26
61961;BME280;47923;42.506;24.192;2023-04-09T07:00:10;95909.41;;;8.98;73.14
61961;BME280;47923;42.506;24.192;2023-04-09T07:02:36;95738.72;;;7.96;71.82
61961;BME280;47923;42.506;24.192;2023-04-09T07:05:02;95837.44;;;8.17;71.75
61961;BME280;47923;42.506;24.192;2023-04-09T07:07:28;95914.19;;;8.68;71.87
61961;BME280;47923;42.506;24.192;2023-04-09T07:09:54;95560.22;;;6.20;71.84
61961;BME280;47923;42.506;24.192;2023-04-09T07:12:29;95907.00;;;8.72;73.14
61961;BME280;47923;42.506;24.192;2023-04-09T07:15:00;95745.41;;;7.78;72.20
61961;BME280;47923;42.506;24.192;2023-04-09T07:17:25;95865.78;;;8.47;71.13
61961;BME280;47923;42.506;24.192;2023-04-09T07:19:51;95694.69;;;7.56;71.29
61961;BME280;47923;42.506;24.192;2023-04-09T07:22:17;95900.50;;;8.85;70.41
61961;BME280;47923;42.506;24.192;2023-04-09T07:24:42;95903.97;;;8.74;70.07
61961;BME280;47923;42.506;24.192;2023-04-09T07:27:08;95711.78;;;7.72;70.57
61961;BME280;47923;42.506;24.192;2023-04-09T07:29:34;95913.44;;;9.29;70.43
61961;BME280;47923;42.506;24.192;2023-04-09T07:32:02;95913.94;;;9.71;69.52
61961;BME280;47923;42.506;24.192;2023-04-09T07:34:28;95468.00;;;6.90;67.96
61961;BME280;47923;42.506;24.192;2023-04-09T07:36:53;95886.03;;;9.79;66.25
61961;BME280;47923;42.506;24.192;2023-04-09T07:39:19;95798.13;;;9.38;65.58
61961;BME280;47923;42.506;24.192;2023-04-09T07:41:46;95783.00;;;9.61;64.70
61961;BME280;47923;42.506;24.192;2023-04-09T07:44:12;95924.09;;;10.58;63.37
61961;BME280;47923;42.506;24.192;2023-04-09T07:46:38;95909.25;;;10.52;63.30
61961;BME280;47923;42.506;24.192;2023-04-09T07:49:04;95853.75;;;10.70;63.23
61961;BME280;47923;42.506;24.192;2023-04-09T07:51:30;95812.13;;;11.06;61.44
61961;BME280;47923;42.506;24.192;2023-04-09T07:53:55;95729.94;;;11.69;58.01
61961;BME280;47923;42.506;24.192;2023-04-09T07:56:21;95912.25;;;14.36;51.94
61961;BME280;47923;42.506;24.192;2023-04-09T07:58:46;95841.94;;;15.19;46.73
61961;BME280;47923;42.506;24.192;2023-04-09T08:01:13;95791.09;;;17.43;41.94
61961;BME280;47923;42.506;24.192;2023-04-09T08:03:39;95898.00;;;19.75;36.63
61961;BME280;47923;42.506;24.192;2023-04-09T08:06:05;95722.31;;;19.66;33.39
61961;BME280;47923;42.506;24.192;2023-04-09T08:08:30;95884.78;;;20.04;33.72
61961;BME280;47923;42.506;24.192;2023-04-09T08:11:05;95916.91;;;20.99;31.97
61961;BME280;47923;42.506;24.192;2023-04-09T08:13:34;95914.41;;;23.37;29.46
61961;BME280;47923;42.506;24.192;2023-04-09T08:16:05;95804.59;;;23.81;28.87
61961;BME280;47923;42.506;24.192;2023-04-09T08:18:58;95839.16;;;23.69;28.64
61961;BME280;47923;42.506;24.192;2023-04-09T08:21:36;95904.19;;;22.46;28.70
61961;BME280;47923;42.506;24.192;2023-04-09T08:24:10;95842.78;;;20.45;31.78
61961;BME280;47923;42.506;24.192;2023-04-09T08:26:44;95893.81;;;18.49;36.80
61961;BME280;47923;42.506;24.192;2023-04-09T08:29:13;95892.38;;;21.15;32.26
61961;BME280;47923;42.506;24.192;2023-04-09T08:31:50;95889.19;;;21.87;31.09
61961;BME280;47923;42.506;24.192;2023-04-09T08:34:18;95734.22;;;21.77;30.89
61961;BME280;47923;42.506;24.192;2023-04-09T08:36:46;95897.31;;;23.91;28.75
61961;BME280;47923;42.506;24.192;2023-04-09T08:39:21;95787.66;;;22.16;29.52
61961;BME280;47923;42.506;24.192;2023-04-09T08:41:53;95867.84;;;23.72;28.42
61961;BME280;47923;42.506;24.192;2023-04-09T08:44:25;95883.31;;;24.27;28.01
61961;BME280;47923;42.506;24.192;2023-04-09T08:46:50;95886.25;;;25.17;26.79
61961;BME280;47923;42.506;24.192;2023-04-09T08:49:16;95732.78;;;23.39;27.96
61961;BME280;47923;42.506;24.192;2023-04-09T08:51:45;95797.66;;;21.87;29.63
61961;BME280;47923;42.506;24.192;2023-04-09T08:54:15;95881.00;;;22.27;30.19
61961;BME280;47923;42.506;24.192;2023-04-09T08:56:43;95723.44;;;23.50;25.39
61961;BME280;47923;42.506;24.192;2023-04-09T08:59:08;95869.56;;;23.82;28.09
61961;BME280;47923;42.506;24.192;2023-04-09T09:01:34;95850.66;;;23.97;26.97
61961;BME280;47923;42.506;24.192;2023-04-09T09:04:02;95858.75;;;21.55;29.24
61961;BME280;47923;42.506;24.192;2023-04-09T09:06:46;95858.13;;;24.55;25.35
61961;BME280;47923;42.506;24.192;2023-04-09T09:09:15;95858.09;;;24.13;26.71
61961;BME280;47923;42.506;24.192;2023-04-09T09:11:46;95726.25;;;22.55;23.67
61961;BME280;47923;42.506;24.192;2023-04-09T09:14:17;95858.44;;;21.72;24.00
61961;BME280;47923;42.506;24.192;2023-04-09T09:17:02;95656.38;;;19.46;24.81
61961;BME280;47923;42.506;24.192;2023-04-09T09:19:30;95827.53;;;18.90;26.04
61961;BME280;47923;42.506;24.192;2023-04-09T09:22:05;95859.09;;;19.05;27.43
61961;BME280;47923;42.506;24.192;2023-04-09T09:24:31;95752.78;;;19.34;27.30
61961;BME280;47923;42.506;24.192;2023-04-09T09:27:01;95757.38;;;20.90;25.92
61961;BME280;47923;42.506;24.192;2023-04-09T09:29:27;95845.72;;;22.42;24.40
61961;BME280;47923;42.506;24.192;2023-04-09T09:31:53;95854.84;;;21.95;25.24
61961;BME280;47923;42.506;24.192;2023-04-09T09:34:21;95721.78;;;19.78;25.88
61961;BME280;47923;42.506;24.192;2023-04-09T09:36:47;95850.97;;;20.76;26.29
61961;BME280;47923;42.506;24.192;2023-04-09T09:39:14;95841.84;;;20.55;25.72
61961;BME280;47923;42.506;24.192;2023-04-09T09:41:42;95842.44;;;21.44;24.89
61961;BME280;47923;42.506;24.192;2023-04-09T09:44:10;95740.75;;;21.64;23.86
61961;BME280;47923;42.506;24.192;2023-04-09T09:46:38;95851.81;;;19.74;26.71
61961;BME280;47923;42.506;24.192;2023-04-09T09:49:05;95831.53;;;20.02;26.68
61961;BME280;47923;42.506;24.192;2023-04-09T09:51:32;95833.88;;;20.64;25.93
61961;BME280;47923;42.506;24.192;2023-04-09T09:53:58;95830.88;;;21.06;25.46
61961;BME280;47923;42.506;24.192;2023-04-09T09:56:29;95828.28;;;21.89;23.62
61961;BME280;47923;42.506;24.192;2023-04-09T10:01:26;95822.97;;;20.27;24.66
61961;BME280;47923;42.506;24.192;2023-04-09T10:03:52;95824.25;;;20.53;26.20
61961;BME280;47923;42.506;24.192;2023-04-09T10:06:20;95817.28;;;19.80;25.20
61961;BME280;47923;42.506;24.192;2023-04-09T10:08:47;95683.19;;;17.90;25.23
61961;BME280;47923;42.506;24.192;2023-04-09T10:11:13;95824.03;;;18.16;26.82
61961;BME280;47923;42.506;24.192;2023-04-09T10:13:52;95814.00;;;17.88;29.22
61961;BME280;47923;42.506;24.192;2023-04-09T10:16:20;95744.38;;;16.55;31.16
61961;BME280;47923;42.506;24.192;2023-04-09T10:18:47;95805.50;;;17.54;31.14
61961;BME280;47923;42.506;24.192;2023-04-09T10:24:10;95805.09;;;17.73;29.21
61961;BME280;47923;42.506;24.192;2023-04-09T10:26:39;95715.56;;;16.82;30.02
61961;BME280;47923;42.506;24.192;2023-04-09T10:29:15;95830.06;;;16.40;32.34
61961;BME280;47923;42.506;24.192;2023-04-09T10:32:08;95817.59;;;16.42;32.84
61961;BME280;47923;42.506;24.192;2023-04-09T10:34:38;95754.13;;;15.30;34.59
61961;BME280;47923;42.506;24.192;2023-04-09T10:37:06;95818.66;;;16.06;34.21
61961;BME280;47923;42.506;24.192;2023-04-09T10:39:32;95743.19;;;15.19;35.03
61961;BME280;47923;42.506;24.192;2023-04-09T10:42:00;95813.75;;;15.56;32.72
61961;BME280;47923;42.506;24.192;2023-04-09T10:44:27;95819.41;;;15.92;32.30
61961;BME280;47923;42.506;24.192;2023-04-09T10:46:56;95808.31;;;15.56;32.20
61961;BME280;47923;42.506;24.192;2023-04-09T10:49:26;95785.31;;;15.46;34.52
61961;BME280;47923;42.506;24.192;2023-04-09T10:59:36;95801.03;;;15.09;36.75
61961;BME280;47923;42.506;24.192;2023-04-09T11:02:06;95795.25;;;14.62;38.00
61961;BME280;47923;42.506;24.192;2023-04-09T11:04:56;95796.72;;;15.04;35.62
61961;BME280;47923;42.506;24.192;2023-04-09T11:07:24;95797.16;;;15.06;36.05
61961;BME280;47923;42.506;24.192;2023-04-09T11:09:52;95721.53;;;14.30;35.84
61961;BME280;47923;42.506;24.192;2023-04-09T11:12:17;95795.22;;;13.85;38.60
61961;BME280;47923;42.506;24.192;2023-04-09T11:14:43;95631.38;;;12.42;37.86
61961;BME280;47923;42.506;24.192;2023-04-09T11:17:08;95692.25;;;13.35;35.75
61961;BME280;47923;42.506;24.192;2023-04-09T11:19:34;95782.59;;;14.40;33.96
61961;BME280;47923;42.506;24.192;2023-04-09T11:22:03;95737.78;;;14.64;32.52
61961;BME280;47923;42.506;24.192;2023-04-09T11:24:44;95793.19;;;14.12;31.45
61961;BME280;47923;42.506;24.192;2023-04-09T11:27:11;95778.72;;;13.67;33.24
61961;BME280;47923;42.506;24.192;2023-04-09T11:29:37;95723.16;;;13.57;33.98
61961;BME280;47923;42.506;24.192;2023-04-09T11:32:03;95684.16;;;12.79;33.73
61961;BME280;47923;42.506;24.192;2023-04-09T11:34:32;95724.75;;;13.02;34.23
61961;BME280;47923;42.506;24.192;2023-04-09T11:36:58;95577.72;;;12.25;33.14
61961;BME280;47923;42.506;24.192;2023-04-09T11:39:27;95754.94;;;13.26;33.51
61961;BME280;47923;42.506;24.192;2023-04-09T11:41:52;95584.13;;;11.87;33.98
61961;BME280;47923;42.506;24.192;2023-04-09T11:44:19;95770.28;;;12.39;34.59
61961;BME280;47923;42.506;24.192;2023-04-09T11:46:46;95591.94;;;11.46;33.60
61961;BME280;47923;42.506;24.192;2023-04-09T11:49:13;95169.34;;;8.71;32.46
61961;BME280;47923;42.506;24.192;2023-04-09T11:51:39;95752.88;;;12.63;32.04
61961;BME280;47923;42.506;24.192;2023-04-09T11:54:04;95754.38;;;12.61;31.58
61961;BME280;47923;42.506;24.192;2023-04-09T11:56:31;95601.44;;;11.82;30.38
61961;BME280;47923;42.506;24.192;2023-04-09T11:58:57;95658.16;;;12.48;30.31
61961;BME280;47923;42.506;24.192;2023-04-09T12:01:23;95611.03;;;12.03;31.42
61961;BME280;47923;42.506;24.192;2023-04-09T12:03:52;95747.66;;;12.78;30.47
61961;BME280;47923;42.506;24.192;2023-04-09T12:06:20;95745.09;;;12.62;31.66
61961;BME280;47923;42.506;24.192;2023-04-09T12:08:51;95688.44;;;12.27;30.99
61961;BME280;47923;42.506;24.192;2023-04-09T12:11:16;95727.47;;;12.26;31.27
61961;BME280;47923;42.506;24.192;2023-04-09T12:13:42;95682.66;;;12.05;31.01
61961;BME280;47923;42.506;24.192;2023-04-09T12:16:11;95727.28;;;12.87;31.62
61961;BME280;47923;42.506;24.192;2023-04-09T12:18:37;95729.59;;;13.15;30.99
61961;BME280;47923;42.506;24.192;2023-04-09T12:21:02;95725.44;;;12.95;31.23
61961;BME280;47923;42.506;24.192;2023-04-09T12:23:28;95584.63;;;11.73;31.97
61961;BME280;47923;42.506;24.192;2023-04-09T12:25:56;95723.13;;;12.70;31.79
61961;BME280;47923;42.506;24.192;2023-04-09T12:28:25;95731.84;;;12.83;33.34
61961;BME280;47923;42.506;24.192;2023-04-09T12:30:50;95721.09;;;12.90;32.69
61961;BME280;47923;42.506;24.192;2023-04-09T12:33:16;95735.06;;;13.19;33.04
61961;BME280;47923;42.506;24.192;2023-04-09T12:35:41;95376.09;;;10.83;31.66
61961;BME280;47923;42.506;24.192;2023-04-09T12:38:07;95469.09;;;11.51;32.13
61961;BME280;47923;42.506;24.192;2023-04-09T12:40:34;95711.91;;;13.25;31.01
61961;BME280;47923;42.506;24.192;2023-04-09T12:43:00;95728.50;;;13.20;31.17
61961;BME280;47923;42.506;24.192;2023-04-09T12:45:26;95711.13;;;12.98;29.30
61961;BME280;47923;42.506;24.192;2023-04-09T12:47:52;95649.03;;;12.59;30.10
61961;BME280;47923;42.506;24.192;2023-04-09T12:50:17;95568.28;;;11.89;32.13
61961;BME280;47923;42.506;24.192;2023-04-09T12:52:44;95602.06;;;12.22;32.67
61961;BME280;47923;42.506;24.192;2023-04-09T12:55:13;95647.44;;;12.85;31.94
61961;BME280;47923;42.506;24.192;2023-04-09T12:57:45;95662.13;;;12.84;31.79
61961;BME280;47923;42.506;24.192;2023-04-09T13:00:24;95572.06;;;12.64;32.58
61961;BME280;47923;42.506;24.192;2023-04-09T13:03:09;95691.38;;;13.24;31.98
61961;BME280;47923;42.506;24.192;2023-04-09T13:05:39;95529.25;;;12.47;30.11
61961;BME280;47923;42.506;24.192;2023-04-09T13:08:17;95677.88;;;13.31;30.83
61961;BME280;47923;42.506;24.192;2023-04-09T13:10:50;95588.38;;;13.01;30.85
61961;BME280;47923;42.506;24.192;2023-04-09T13:13:32;95614.44;;;13.09;31.28
61961;BME280;47923;42.506;24.192;2023-04-09T13:16:03;95695.03;;;13.09;31.71
61961;BME280;47923;42.506;24.192;2023-04-09T13:18:29;95685.81;;;13.17;31.23